Latest Weather Observations for St Helens

IDT60801

Issued at 4:41 pm EDT Wednesday 21 November 2018 (issued every 10 minutes, with the page automatically refreshed every 10 minutes)

About weather observations | Map of weather stations | Latest weather observations for TAS | Other Formats
Station Details ID: 092120 Name: ST HELENS AERODROME Lat: -41.34 Lon: 148.28 Height: 48.0 m
Data from the previous 72 hours. | See also: Recent months at St Helens
Date/Time
EDT
Temp
°C
App
Temp
°C
Dew
Point
°C
Rel
Hum
%
Delta-T
°C
Wind Press
QNH
hPa
Press
MSL
hPa
Rain since
9am
mm
Dir  Spd
km/h
Gust
km/h
Spd
kts
Gust
kts
21/04:30pm 20.6 17.2 14.7 69 3.5 S 26 41 14 22 994.5 - 0.2
21/04:00pm 21.6 19.4 14.3 63 4.3 S 19 28 10 15 994.1 - 0.2
21/03:30pm 23.0 21.8 12.9 53 5.8 SW 11 20 6 11 994.2 - 0.2
21/03:00pm 24.2 22.3 11.9 46 7.0 WNW 13 24 7 13 993.9 993.8 0.2
21/02:30pm 24.1 22.2 11.8 46 7.0 NNW 13 26 7 14 993.9 - 0.2
21/02:00pm 23.5 20.5 10.6 44 7.1 WNW 17 32 9 17 994.2 - 0.2
21/01:30pm 23.9 20.8 11.6 46 6.9 WNW 19 28 10 15 994.5 - 0.2
21/01:00pm 23.3 22.0 12.6 51 6.1 W 11 20 6 11 994.7 - 0.2
21/12:30pm 22.3 21.5 13.9 59 4.9 WNW 11 15 6 8 995.1 - 0.2
21/12:00pm 22.5 21.2 13.8 58 5.1 NW 13 19 7 10 995.2 995.1 0.2
21/11:30am 21.3 21.0 14.5 65 4.0 WNW 9 15 5 8 995.3 - 0.2
21/11:00am 20.9 20.8 15.9 73 3.0 NW 11 19 6 10 995.3 - 0.0
21/10:30am 19.0 18.8 15.7 81 2.0 NW 11 17 6 9 995.3 - 0.0
21/10:00am 17.2 17.4 16.7 97 0.3 NW 11 17 6 9 995.2 - 0.0
21/09:36am 16.6 17.0 16.3 98 0.2 W 9 15 5 8 995.4 - 0.0
21/09:30am 16.8 17.3 16.6 99 0.1 NW 9 15 5 8 995.7 - 0.0
21/09:26am - - - - - NW 9 15 5 8 - - 0.0
21/09:22am 16.5 17.3 16.3 99 0.1 NW 7 11 4 6 995.8 - 0.0
21/09:01am 16.3 18.0 16.1 99 0.1 SSW 2 9 1 5 995.4 - 0.0
21/09:00am 16.3 17.6 16.1 99 0.1 S 4 9 2 5 995.4 995.3 27.6
21/08:53am 16.1 16.9 15.9 99 0.1 SW 6 13 3 7 994.6 - 27.6
21/08:34am 16.1 16.4 15.9 99 0.1 N 9 17 5 9 995.2 - 27.6
21/08:30am 16.0 15.8 15.8 99 0.1 N 11 17 6 9 995.5 - 27.6
21/08:24am 16.0 15.8 15.8 99 0.1 NE 11 17 6 9 995.4 - 27.6
21/08:00am 16.0 17.2 15.8 99 0.1 E 4 11 2 6 995.2 - 26.6
21/07:30am 15.9 17.4 15.7 99 0.1 NW 2 7 1 4 995.9 - 25.8
21/07:29am 15.9 17.4 15.7 99 0.1 WNW 2 6 1 3 995.9 - 25.8
21/07:26am 15.9 17.4 15.7 99 0.1 W 2 7 1 4 996.2 - 25.6
21/07:18am 15.7 16.2 15.5 99 0.1 SE 7 13 4 7 996.2 - 25.4
21/07:00am 15.8 15.9 15.6 99 0.1 E 9 13 5 7 995.9 - 25.2
21/06:46am 15.9 17.7 15.6 98 0.2 CALM 0 0 0 0 996.2 - 24.6
21/06:38am 15.9 17.7 15.6 98 0.2 CALM 0 6 0 3 996.3 - 24.0
21/06:35am 15.9 17.4 15.6 98 0.2 S 2 6 1 3 996.4 - 23.8
21/06:30am 16.0 17.5 15.7 98 0.2 ENE 2 7 1 4 996.4 - 23.4
21/06:13am 16.0 17.1 15.7 98 0.2 NE 4 9 2 5 996.6 - 21.6
21/06:00am 15.9 16.6 15.6 98 0.2 E 6 13 3 7 996.6 996.5 20.6
21/05:58am 16.0 16.7 15.7 98 0.2 E 6 13 3 7 996.6 - 20.4
21/05:30am 16.2 17.0 15.9 98 0.2 NNE 6 9 3 5 997.0 - 13.4
21/05:25am 16.2 16.8 15.9 98 0.2 N 7 11 4 6 997.1 - 12.6
21/05:03am 16.2 16.1 15.9 98 0.2 NNE 11 15 6 8 997.3 - 9.8
21/05:00am 16.2 16.1 15.9 98 0.2 NNE 11 15 6 8 997.4 - 9.6
21/04:30am 16.2 16.0 15.7 97 0.3 N 11 17 6 9 998.0 - 6.0
21/04:21am 16.3 15.8 15.8 97 0.3 N 13 20 7 11 998.1 - 5.0
21/04:00am 16.5 14.7 16.0 97 0.3 NNE 20 28 11 15 998.2 - 3.4
21/03:30am 16.4 14.6 15.9 97 0.3 NNE 20 28 11 15 998.1 - 2.8
21/03:00am 16.5 14.7 16.0 97 0.3 NNE 20 33 11 18 998.7 998.7 2.4
21/02:30am 16.6 14.5 16.1 97 0.3 NNE 22 32 12 17 999.1 - 2.4
21/02:00am 16.4 14.8 16.1 98 0.2 NNE 19 30 10 16 999.5 - 2.4
21/01:30am 16.5 15.7 16.2 98 0.2 NNE 15 20 8 11 1000.0 - 2.4
21/01:27am 16.5 15.8 16.3 99 0.1 NNE 15 22 8 12 999.9 - 2.4
21/01:00am 16.3 14.5 16.1 99 0.1 NE 20 32 11 17 1000.6 - 2.4
21/12:30am 16.3 15.5 16.0 98 0.2 ENE 15 28 8 15 1002.0 - 2.2
21/12:13am 16.2 16.1 15.9 98 0.2 NNE 11 17 6 9 1002.6 - 2.2
21/12:00am 16.4 17.1 16.1 98 0.2 NNE 7 13 4 7 1003.2 1003.3 2.0
 
Date/Time
EDT
Temp
°C
App
Temp
°C
Dew
Point
°C
Rel
Hum
%
Delta-T
°C
Wind Press
QNH
hPa
Press
MSL
hPa
Rain since
9am
mm
Dir  Spd
km/h
Gust
km/h
Spd
kts
Gust
kts
20/11:30pm 16.3 14.7 16.0 98 0.2 NNE 19 26 10 14 1004.1 - 1.8
20/11:00pm 16.2 14.9 15.9 98 0.2 NE 17 26 9 14 1004.6 - 1.8
20/10:30pm 16.2 14.5 15.7 97 0.3 NE 19 28 10 15 1005.0 - 1.6
20/10:00pm 16.1 14.7 15.6 97 0.3 NE 17 26 9 14 1005.5 - 1.6
20/09:30pm 16.2 14.9 15.7 97 0.3 NE 17 22 9 12 1005.4 - 1.4
20/09:00pm 16.3 15.4 15.8 97 0.3 NE 15 22 8 12 1005.8 1005.8 1.0
20/08:30pm 16.4 15.1 15.8 96 0.4 NE 17 22 9 12 1005.8 - 0.6
20/08:00pm 16.5 15.2 15.9 96 0.4 NE 17 24 9 13 1006.3 - 0.2
20/07:30pm 16.6 15.7 15.8 95 0.5 NE 15 20 8 11 1006.6 - 0.0
20/07:20pm 16.5 15.2 15.7 95 0.5 NE 17 20 9 11 1006.4 - 0.0
20/07:19pm 16.5 15.2 15.7 95 0.5 NE 17 20 9 11 1006.4 - 0.0
20/07:00pm 16.4 15.3 15.4 94 0.6 NE 15 20 8 11 1006.3 - 0.0
20/06:30pm 16.6 16.3 15.5 93 0.6 ENE 11 15 6 8 1006.2 - 0.0
20/06:00pm 16.8 16.9 15.5 92 0.8 NE 9 13 5 7 1006.4 1006.5 0.0
20/05:30pm 16.7 16.7 15.2 91 0.9 NNE 9 15 5 8 1007.0 - 0.0
20/05:00pm 16.8 16.1 15.3 91 0.9 NNE 13 20 7 11 1006.9 - 0.0
20/04:30pm 17.0 16.5 15.0 88 1.2 NNE 11 15 6 8 1007.1 - 0.0
20/04:00pm 17.3 17.2 14.9 86 1.4 N 9 13 5 7 1007.6 - 0.0
20/03:30pm 17.3 17.1 14.8 85 1.4 N 9 15 5 8 1008.0 - 0.0
20/03:00pm 17.3 16.8 14.8 85 1.5 N 11 17 6 9 1008.2 1008.2 0.0
20/02:30pm 17.3 15.9 14.6 84 1.6 N 15 22 8 12 1008.7 - 0.0
20/02:00pm 17.4 15.5 14.3 82 1.8 NNE 17 24 9 13 1009.1 - 0.0
20/01:30pm 18.1 17.0 14.4 79 2.1 NNE 13 22 7 12 1009.4 - 0.0
20/01:00pm 17.8 16.8 14.5 81 1.9 N 13 20 7 11 1009.9 - 0.0
20/12:30pm 17.3 15.9 14.4 83 1.7 N 15 20 8 11 1010.2 - 0.0
20/12:00pm 17.2 15.2 13.9 81 1.9 NNE 17 22 9 12 1010.6 1010.5 0.0
20/11:30am 17.4 15.0 13.7 79 2.1 NNE 19 28 10 15 1011.2 - 0.0
20/11:00am 17.3 15.1 13.4 78 2.2 NNE 17 26 9 14 1011.8 - 0.0
20/10:30am 17.6 16.4 13.9 79 2.1 NNE 13 20 7 11 1012.0 - 0.0
20/10:00am 16.8 15.1 13.5 81 1.9 N 15 24 8 13 1012.6 - 0.0
20/09:59am 16.8 15.1 13.5 81 1.9 N 15 24 8 13 1012.6 - 0.0
20/09:30am 16.7 14.2 13.4 81 1.9 NNE 19 30 10 16 1012.6 - 0.0
20/09:00am 16.7 14.1 13.2 80 2.0 NNE 19 28 10 15 1012.7 1012.7 0.0
20/08:30am 16.6 15.0 13.9 84 1.5 NNE 15 24 8 13 1013.0 - 0.0
20/08:00am 16.3 14.3 13.8 85 1.4 NNE 17 24 9 13 1013.2 - 0.0
20/07:30am 16.5 14.9 14.0 85 1.4 NNE 15 20 8 11 1013.3 - 0.0
20/07:24am 16.4 15.2 13.9 85 1.4 NNE 13 20 7 11 1013.3 - 0.0
20/07:00am 16.2 16.3 14.0 87 1.2 N 6 9 3 5 1013.4 - 0.0
20/06:30am 15.2 15.4 13.2 88 1.1 WNW 4 7 2 4 1013.8 - 0.0
20/06:05am 15.0 15.2 13.2 89 1.0 NNW 4 9 2 5 1013.7 - 0.0
20/06:00am 15.0 14.7 13.2 89 1.0 N 7 11 4 6 1013.9 1013.8 0.0
20/05:30am 14.7 14.8 12.6 87 1.2 NNE 4 7 2 4 1014.0 - 0.0
20/05:00am 14.8 14.5 12.7 87 1.2 N 6 7 3 4 1014.5 - 0.0
20/04:30am 14.6 14.2 12.5 87 1.1 N 6 15 3 8 1014.6 - 0.0
20/04:00am 15.1 14.8 12.6 85 1.4 N 6 11 3 6 1014.8 - 0.0
20/03:30am 15.2 14.6 12.3 83 1.6 NNW 7 11 4 6 1015.1 - 0.0
20/03:00am 15.1 14.7 12.4 84 1.5 N 6 11 3 6 1015.4 1015.4 0.0
20/02:30am 14.7 14.1 11.8 83 1.6 NNE 6 9 3 5 1015.8 - 0.0
20/02:00am 14.7 13.9 11.7 82 1.6 NNW 7 13 4 7 1016.4 - 0.0
20/01:30am 15.2 14.1 12.0 81 1.7 N 9 13 5 7 1016.9 - 0.0
20/01:00am 15.3 13.9 12.1 81 1.7 N 11 19 6 10 1017.3 - 0.0
20/12:30am 15.3 13.8 11.9 80 1.8 N 11 15 6 8 1017.6 - 0.0
20/12:00am 15.1 13.5 11.5 79 1.9 N 11 17 6 9 1018.2 1018.2 0.0
 
Date/Time
EDT
Temp
°C
App
Temp
°C
Dew
Point
°C
Rel
Hum
%
Delta-T
°C
Wind Press
QNH
hPa
Press
MSL
hPa
Rain since
9am
mm
Dir  Spd
km/h
Gust
km/h
Spd
kts
Gust
kts
19/11:30pm 15.3 13.2 11.1 76 2.2 NNE 13 19 7 10 1018.4 - 0.0
19/11:00pm 15.3 13.2 11.1 76 2.2 NNE 13 19 7 10 1018.6 - 0.0
19/10:30pm 15.1 13.7 10.9 76 2.2 NNE 9 13 5 7 1018.7 - 0.0
19/10:00pm 15.1 14.1 10.9 76 2.2 NNE 7 15 4 8 1019.0 - 0.0
19/09:30pm 15.3 13.8 10.7 74 2.4 NE 9 15 5 8 1019.0 - 0.0
19/09:00pm 15.4 13.1 10.4 72 2.6 NNE 13 22 7 12 1019.0 1019.0 0.0
19/08:30pm 15.4 13.1 10.4 72 2.6 NNE 13 20 7 11 1019.0 - 0.0
19/08:00pm 15.2 13.2 10.2 72 2.6 NNE 11 15 6 8 1019.0 - 0.0
19/07:30pm 15.6 12.5 10.4 71 2.7 NNE 17 22 9 12 1018.8 - 0.0
19/07:00pm 15.9 13.5 10.0 68 3.1 NNE 13 19 7 10 1018.8 - 0.0
19/06:30pm 15.8 12.5 9.7 67 3.2 NNE 17 26 9 14 1018.9 - 0.0
19/06:00pm 16.4 12.5 9.3 63 3.7 NE 20 30 11 16 1018.9 1018.9 0.0
19/05:30pm 16.8 12.5 9.2 61 3.9 NE 22 32 12 17 1019.0 - 0.0
19/05:00pm 17.3 12.1 9.0 58 4.3 NE 26 39 14 21 1019.2 - 0.0
19/04:30pm 17.7 12.2 9.3 58 4.4 NE 28 39 15 21 1019.5 - 0.0
19/04:00pm 18.8 13.0 9.6 55 4.9 NE 30 39 16 21 1019.6 - 0.0
19/03:30pm 18.8 13.2 10.1 57 4.7 NE 30 41 16 22 1019.8 - 0.0
19/03:00pm 19.0 15.0 10.6 58 4.5 NNE 22 37 12 20 1020.1 1020.1 0.0
19/02:30pm 18.9 14.4 10.2 57 4.7 NNE 24 35 13 19 1020.4 - 0.0
19/02:00pm 18.3 13.8 10.2 59 4.3 NNE 24 35 13 19 1020.7 - 0.0
19/01:30pm 17.9 12.7 10.3 61 4.1 NNE 28 39 15 21 1021.0 - 0.0
19/01:00pm 17.8 12.2 10.2 61 4.0 NE 30 41 16 22 1021.4 - 0.0
19/12:30pm 18.2 13.5 10.6 61 4.1 NNE 26 35 14 19 1021.7 - 0.0
19/12:00pm 18.0 13.8 11.1 64 3.7 NNE 24 33 13 18 1022.1 1022.1 0.0
19/11:30am 17.1 12.4 10.5 65 3.5 NNE 26 41 14 22 1022.4 - 0.0
19/11:00am 17.7 13.5 11.0 65 3.6 NE 24 35 13 19 1022.7 - 0.0
19/10:30am 16.7 13.0 11.4 71 2.9 NNE 22 33 12 18 1023.0 - 0.0
19/10:00am 16.2 12.1 11.6 74 2.5 NE 24 32 13 17 1023.1 - 0.0
19/09:30am 16.2 11.7 11.4 73 2.6 NE 26 32 14 17 1023.3 - 0.0
19/09:00am 16.3 13.5 11.2 72 2.7 NNE 17 24 9 13 1023.5 1023.5 0.0
19/08:30am 16.3 12.8 10.8 70 2.9 NNE 20 26 11 14 1023.4 - 0.0
19/08:00am 16.1 13.1 11.9 76 2.3 NE 19 24 10 13 1023.3 - 0.0
19/07:30am 14.7 12.2 11.1 79 1.9 NNE 15 24 8 13 1023.0 - 0.0
19/07:00am 14.1 13.6 12.8 92 0.7 NE 7 13 4 7 1023.0 - 0.0
19/06:30am 11.8 11.7 10.9 94 0.5 NNW 2 7 1 4 1022.9 - 0.0
19/06:00am 11.4 10.5 10.8 96 0.3 N 6 9 3 5 1022.7 1022.7 0.0
19/05:30am 11.0 9.8 10.4 96 0.3 NW 7 9 4 5 1022.7 - 0.0
19/05:00am 10.8 9.2 10.2 96 0.3 NW 9 11 5 6 1022.6 - 0.0
19/04:30am 10.6 8.9 10.0 96 0.3 NW 9 13 5 7 1022.6 - 0.0
19/04:00am 11.2 10.1 10.6 96 0.3 NW 7 9 4 5 1022.6 - 0.0
19/03:30am 10.9 9.3 10.1 95 0.4 NNW 9 11 5 6 1022.9 - 0.0
19/03:00am 10.9 8.9 10.1 95 0.4 NNW 11 11 6 6 1023.1 1023.1 0.0
19/02:30am 11.5 10.0 10.6 94 0.5 NNW 9 9 5 5 1023.5 - 0.0
19/02:00am 12.0 11.2 11.1 94 0.5 NW 6 7 3 4 1023.7 - 0.0
19/01:30am 12.2 11.2 10.9 92 0.7 NNW 7 9 4 5 1024.0 - 0.0
19/01:00am 12.9 13.3 11.1 89 0.9 CALM 0 0 0 0 1024.3 - 0.0
19/12:30am 13.4 13.8 11.1 86 1.2 CALM 0 0 0 0 1024.5 - 0.0
19/12:00am 13.9 14.1 10.7 81 1.7 CALM 0 0 0 0 1024.7 1024.7 0.0
 
Date/Time
EDT
Temp
°C
App
Temp
°C
Dew
Point
°C
Rel
Hum
%
Delta-T
°C
Wind Press
QNH
hPa
Press
MSL
hPa
Rain since
9am
mm
Dir  Spd
km/h
Gust
km/h
Spd
kts
Gust
kts
18/11:30pm 14.5 14.4 10.9 79 1.9 N 2 7 1 4 1024.7 - 0.0
18/11:00pm 14.7 13.9 10.9 78 2.0 NNW 6 7 3 4 1024.8 - 0.0
18/10:30pm 15.0 14.1 11.2 78 2.0 N 7 9 4 5 1024.7 - 0.0
18/10:00pm 15.1 14.1 11.1 77 2.1 N 7 13 4 7 1024.7 - 0.0
18/09:30pm 15.1 14.1 10.9 76 2.2 N 7 11 4 6 1024.6 - 0.0
18/09:00pm 15.1 14.1 11.1 77 2.1 N 7 11 4 6 1024.5 1024.5 0.0
18/08:30pm 15.1 13.9 11.5 79 1.9 NE 9 13 5 7 1024.4 - 0.0
18/08:00pm 15.0 13.0 11.4 79 1.9 NE 13 19 7 10 1024.4 - 0.0
18/07:30pm 15.1 13.1 11.5 79 1.9 NE 13 17 7 9 1024.4 - 0.0
18/07:00pm 15.1 13.1 11.5 79 1.9 NE 13 17 7 9 1024.3 - 0.0
18/06:30pm 15.0 12.7 11.6 80 1.8 NE 15 20 8 11 1024.3 - 0.0
18/06:00pm 14.8 12.3 11.2 79 1.9 ENE 15 24 8 13 1024.3 1024.4 0.0
18/05:30pm 14.8 11.5 11.0 78 2.0 ENE 19 22 10 12 1024.3 - 0.0
18/05:00pm 15.0 12.2 11.2 78 2.0 ENE 17 24 9 13 1024.3 - 0.0

Other Formats:

Comma delimited format used in spreadsheet applications
http://www.bom.gov.au/fwo/IDT60801/IDT60801.95981.axf

JavaScript Object Notation format (JSON) in row-major order
http://www.bom.gov.au/fwo/IDT60801/IDT60801.95981.json